Chester, New York
Current Conditions -  °F | °C
As of 3:32 PM on Monday 26 Jan 2015 (Local Time) from KMGJ Reporting Station
Light Snow Light Snow  
Wind Chill:   Ceiling: 3500
Heat Index: 18°   Visibility: 2mi
Dew Point: 13°   Wind: 16mph
Humidity: 81%   Direction: 30°NNE
Pressure: 29.9"   Gusts: NA
Location:  41.36°N, 74.27°W
Report Text: KMGJ 262032Z AUTO 03014KT 2SM -SN BKN035 OVC049 M08/M11 A2990 RMK AO2 P0000 T10781106 TSNO
Loading
Personal Weather Stations






























Interactive Weather Map New forecast layout! Learn more

10-Day Weather Forecast

Advertisements
Track Severe Weather on mobile